Time;durP1;ratioP1;P1;durP2;ratioP2;P2;SDS_P1;SDS_P2;PMS_P1;PMS_P2;Temp;Humidity;BMP_temperature;BMP_pressure;BME280_temperature;BME280_humidity;BME280_pressure;Samples;Min_cycle;Max_cycle;Signal;HPM_P1;HPM_P2
2023/01/26 00:01:57;;;;;;;230.13;90.70;;;;;;;-1.90;100.00;160079.72;5031625;28;20125;-68
2023/01/26 00:04:22;;;;;;;234.48;96.07;;;;;;;-1.90;100.00;160081.03;5032886;28;20049;-68
2023/01/26 00:06:48;;;;;;;237.85;93.25;;;;;;;-1.93;100.00;160074.34;5031229;28;20390;-68
2023/01/26 00:09:14;;;;;;;228.70;88.40;;;;;;;-1.94;100.00;160071.66;5032618;28;20022;-68
2023/01/26 00:11:39;;;;;;;201.05;82.45;;;;;;;-1.96;100.00;160066.31;5031571;28;20068;-68
2023/01/26 00:14:05;;;;;;;206.45;85.03;;;;;;;-1.96;100.00;160066.31;5032838;28;20025;-68
2023/01/26 00:16:30;;;;;;;204.65;94.13;;;;;;;-1.93;100.00;160073.00;5031337;28;20056;-68
2023/01/26 00:18:55;;;;;;;221.10;84.85;;;;;;;-1.95;100.00;160069.00;5033173;28;20026;-68
2023/01/26 00:21:22;;;;;;;205.30;86.18;;;;;;;-1.99;100.00;160058.31;5030819;28;20041;-68
2023/01/26 00:23:49;;;;;;;212.73;92.85;;;;;;;-2.05;100.00;160042.25;5032535;28;20500;-68
2023/01/26 00:26:17;;;;;;;217.70;84.57;;;;;;;-2.00;100.00;160055.63;5030702;28;20041;-68
2023/01/26 00:28:43;;;;;;;200.82;89.18;;;;;;;-2.01;100.00;160052.94;5032835;28;20060;-67
2023/01/26 00:31:18;;;;;;;209.40;83.47;;;;;;;-2.00;100.00;160055.63;5031588;28;20204;-66
2023/01/26 00:33:43;;;;;;;212.35;84.47;;;;;;;-1.98;100.00;160061.00;5033251;28;20059;-66
2023/01/26 00:36:09;;;;;;;215.98;86.15;;;;;;;-1.94;100.00;160071.66;5031008;28;20448;-66
2023/01/26 00:38:35;;;;;;;231.30;89.40;;;;;;;-1.91;100.00;160078.34;5032655;28;20100;-66
2023/01/26 00:41:00;;;;;;;212.82;83.13;;;;;;;-1.89;100.00;160082.34;5031476;28;20469;-66
2023/01/26 00:43:26;;;;;;;227.75;92.57;;;;;;;-1.92;100.00;160075.69;5031911;28;20033;-66
2023/01/26 00:45:51;;;;;;;212.55;83.20;;;;;;;-1.89;100.00;160082.34;5031089;28;20040;-66
2023/01/26 00:48:17;;;;;;;208.52;84.95;;;;;;;-1.86;100.00;160090.41;5032419;28;20021;-66
2023/01/26 00:50:42;;;;;;;220.73;92.05;;;;;;;-1.92;100.00;160075.69;5030795;28;20037;-66
2023/01/26 00:53:08;;;;;;;230.07;87.57;;;;;;;-1.85;100.00;160093.09;5032602;28;20029;-66
2023/01/26 00:55:33;;;;;;;220.15;80.60;;;;;;;-1.83;100.00;160098.47;5031119;28;20045;-66
2023/01/26 00:58:04;;;;;;;213.15;81.95;;;;;;;-1.88;100.00;160086.41;5032035;28;20400;-66
2023/01/26 01:00:31;;;;;;;213.50;85.93;;;;;;;-1.83;100.00;160098.47;5030702;28;20049;-66
2023/01/26 01:02:57;;;;;;;202.43;83.85;;;;;;;-1.80;100.00;160106.47;5032225;28;20026;-66
2023/01/26 01:05:25;;;;;;;221.63;90.07;;;;;;;-1.87;100.00;160087.72;5030305;28;20072;-66
2023/01/26 01:07:50;;;;;;;197.35;83.18;;;;;;;-1.82;100.00;160101.09;5031500;28;20029;-66
2023/01/26 01:10:16;;;;;;;208.75;79.13;;;;;;;-1.79;100.00;160110.47;5030549;28;20021;-66
2023/01/26 01:12:41;;;;;;;214.32;88.38;;;;;;;-1.79;100.00;160109.13;5031744;28;20030;-67
2023/01/26 01:15:07;;;;;;;202.43;85.63;;;;;;;-1.73;100.00;160125.19;5030733;28;20022;-66
2023/01/26 01:17:35;;;;;;;201.95;82.97;;;;;;;-1.75;100.00;160119.88;5031573;28;20048;-67
2023/01/26 01:20:01;;;;;;;197.55;79.38;;;;;;;-1.74;100.00;160121.19;5030603;28;20400;-66
2023/01/26 01:22:26;;;;;;;201.57;79.82;;;;;;;-1.77;100.00;160115.81;5031673;28;20029;-66
2023/01/26 01:24:51;;;;;;;193.93;78.07;;;;;;;-1.74;100.00;160121.19;5032039;28;20044;-66
2023/01/26 01:27:17;;;;;;;200.15;73.95;;;;;;;-1.88;100.00;160085.03;5029659;28;20048;-66
2023/01/26 01:29:42;;;;;;;193.30;84.45;;;;;;;-1.78;100.00;160113.16;5031986;28;20029;-66
2023/01/26 01:32:07;;;;;;;191.75;82.45;;;;;;;-1.80;100.00;160106.47;5030218;28;20408;-66
2023/01/26 01:34:33;;;;;;;196.00;80.32;;;;;;;-1.87;100.00;160087.72;5031628;28;20037;-66
2023/01/26 01:36:58;;;;;;;184.48;75.45;;;;;;;-1.85;100.00;160093.09;5030098;28;20045;-66
2023/01/26 01:39:23;;;;;;;216.63;85.90;;;;;;;-1.78;100.00;160113.16;5031532;28;20436;-67
2023/01/26 01:41:49;;;;;;;186.13;78.82;;;;;;;-1.79;100.00;160109.13;5029955;28;20033;-67
2023/01/26 01:44:20;;;;;;;177.98;75.88;;;;;;;-1.78;100.00;160113.16;5030893;28;20040;-67
2023/01/26 01:46:50;;;;;;;201.50;73.35;;;;;;;-1.75;100.00;160119.88;5030126;28;20075;-66
2023/01/26 01:49:22;;;;;;;198.80;77.45;;;;;;;-1.69;100.00;160134.56;5031264;28;20026;-67
2023/01/26 01:52:11;;;;;;;196.10;78.40;;;;;;;-1.67;100.00;160139.94;5029779;28;20037;-66
2023/01/26 01:54:38;;;;;;;;;;;;;;;-1.64;100.00;160147.97;5031780;28;20505;-66
2023/01/26 01:57:14;;;;;;;177.18;65.22;;;;;;;-1.68;100.00;160138.59;5029437;28;19947;-66
2023/01/26 01:59:42;;;;;;;158.95;70.95;;;;;;;-1.67;100.00;160141.25;5031652;28;20095;-66
2023/01/26 02:02:08;;;;;;;180.88;75.30;;;;;;;-1.72;100.00;160127.88;5029986;28;20048;-66
2023/01/26 02:04:34;;;;;;;156.27;69.60;;;;;;;-1.69;100.00;160135.94;5030612;28;20045;-65
2023/01/26 02:07:00;;;;;;;159.63;70.43;;;;;;;-1.72;100.00;160127.88;5029503;28;20041;-65
2023/01/26 02:12:19;;;;;;;141.82;59.20;;;;;;;-1.66;100.00;160142.63;5029080;28;20133;-66
2023/01/26 02:14:45;;;;;;;162.95;64.10;;;;;;;-1.73;100.00;160125.19;5031233;28;20144;-66
2023/01/26 02:17:10;;;;;;;138.55;61.63;;;;;;;-1.85;100.00;160093.09;5028313;28;20129;-66
2023/01/26 02:20:08;;;;;;;143.63;57.15;;;;;;;-1.70;100.00;160133.25;5030045;28;20021;-66
2023/01/26 02:23:16;;;;;;;149.52;62.83;;;;;;;-1.69;100.00;160135.94;5026575;28;20072;-66
2023/01/26 02:25:51;;;;;;;142.15;59.75;;;;;;;-1.70;100.00;160133.25;5012979;28;20044;-66
2023/01/26 02:28:19;;;;;;;137.40;55.90;;;;;;;-1.73;100.00;160125.19;5030477;28;20033;-66
2023/01/26 02:30:45;;;;;;;140.35;59.55;;;;;;;-1.71;100.00;160130.56;5029731;28;20029;-66
2023/01/26 02:33:17;;;;;;;155.88;63.35;;;;;;;-1.70;100.00;160133.25;5030775;28;20611;-67
2023/01/26 02:35:42;;;;;;;148.00;61.63;;;;;;;-1.70;100.00;160133.25;5029339;28;20455;-66
2023/01/26 02:38:08;;;;;;;153.30;57.95;;;;;;;-1.70;100.00;160131.88;5030840;28;20021;-66
2023/01/26 02:40:53;;;;;;;141.82;54.40;;;;;;;-1.69;100.00;160135.94;5028918;28;20046;-66
2023/01/26 02:43:20;;;;;;;141.50;58.88;;;;;;;-1.66;100.00;160143.94;5030708;28;20036;-66
2023/01/26 02:45:45;;;;;;;139.13;52.17;;;;;;;-1.71;100.00;160130.56;5029170;28;20571;-65
2023/01/26 02:48:11;;;;;;;150.05;57.42;;;;;;;-1.71;100.00;160130.56;5030698;28;20029;-65
2023/01/26 02:50:36;;;;;;;137.05;61.28;;;;;;;-1.73;100.00;160123.88;5028744;28;20087;-65
2023/01/26 02:53:02;;;;;;;140.65;56.47;;;;;;;-1.70;100.00;160133.25;5030536;28;20034;-65
2023/01/26 02:55:28;;;;;;;138.40;59.00;;;;;;;-1.69;100.00;160135.94;5028856;28;20040;-65
2023/01/26 02:57:56;;;;;;;153.32;58.08;;;;;;;-1.66;100.00;160143.94;5030637;28;20100;-65
2023/01/26 03:00:25;;;;;;;140.68;57.10;;;;;;;-1.67;100.00;160141.25;5028914;28;20116;-66
2023/01/26 03:02:52;;;;;;;143.93;57.85;;;;;;;-1.62;100.00;160154.66;5030663;28;20535;-65
2023/01/26 03:05:18;;;;;;;135.98;58.10;;;;;;;-1.62;100.00;160154.66;5028409;28;20119;-66
2023/01/26 03:07:44;;;;;;;148.13;61.88;;;;;;;-1.56;100.00;160169.34;5030100;28;20033;-66
2023/01/26 03:10:10;;;;;;;162.57;63.60;;;;;;;-1.53;100.00;160177.41;5029433;28;20384;-65
2023/01/26 03:12:36;;;;;;;147.90;58.58;;;;;;;-1.53;100.00;160176.09;5029991;28;20025;-66
2023/01/26 03:17:45;;;;;;;128.00;54.17;;;;;;;-1.56;100.00;160168.03;5030794;28;20064;-65
2023/01/26 03:28:24;;;;;;;150.65;61.85;;;;;;;-1.52;100.00;160178.72;5030048;28;20396;-66
2023/01/26 03:30:51;;;;;;;124.82;53.20;;;;;;;-1.49;100.00;160186.78;5029389;28;20408;-66
2023/01/26 03:33:17;;;;;;;137.35;58.22;;;;;;;-1.52;100.00;160178.72;5033568;28;20097;-66
2023/01/26 03:35:43;;;;;;;139.75;58.80;;;;;;;-1.55;100.00;160172.03;5032584;28;20037;-65
2023/01/26 03:38:09;;;;;;;135.25;61.38;;;;;;;-1.57;100.00;160165.34;5034067;28;20025;-66
2023/01/26 03:56:59;;;;;;;137.02;59.60;;;;;;;-1.67;100.00;160141.25;5031676;28;20095;-66
2023/01/26 03:59:36;;;;;;;140.63;58.63;;;;;;;-1.65;100.00;160146.63;5033377;28;20021;-66
2023/01/26 04:10:19;;;;;;;147.00;58.10;;;;;;;-1.56;100.00;160168.03;5011813;28;20040;-65
2023/01/26 04:23:40;;;;;;;130.80;52.97;;;;;;;-1.49;100.00;160186.78;5033078;28;20044;-65
2023/01/26 04:26:06;;;;;;;127.35;51.83;;;;;;;-1.46;100.00;160194.81;5030948;28;20041;-65
2023/01/26 04:28:31;;;;;;;120.18;54.55;;;;;;;-1.44;100.00;160200.16;5032801;28;20036;-65
2023/01/26 04:30:56;;;;;;;133.77;48.55;;;;;;;-1.43;100.00;160202.81;5031270;28;20037;-65
2023/01/26 04:33:22;;;;;;;112.25;50.33;;;;;;;-1.44;100.00;160200.16;5032301;28;20412;-65
2023/01/26 04:35:47;;;;;;;105.53;44.15;;;;;;;-1.47;100.00;160193.47;5031484;28;20038;-65
2023/01/26 04:38:12;;;;;;;117.30;47.30;;;;;;;-1.43;100.00;160202.81;5032649;28;20013;-65
2023/01/26 04:40:38;;;;;;;108.72;45.97;;;;;;;-1.40;100.00;160210.88;5030791;28;20381;-63
2023/01/26 04:43:03;;;;;;;110.40;42.75;;;;;;;-1.38;100.00;160216.25;5031960;28;20017;-66
2023/01/26 04:45:28;;;;;;;98.18;43.60;;;;;;;-1.39;100.00;160213.56;5030768;28;20076;-65
2023/01/26 04:47:53;;;;;;;112.57;48.40;;;;;;;-1.36;100.00;160221.56;5031995;28;20033;-64
2023/01/26 04:50:19;;;;;;;97.53;44.72;;;;;;;-1.44;100.00;160201.50;5030853;28;20041;-65
2023/01/26 04:52:44;;;;;;;107.53;41.65;;;;;;;-1.39;100.00;160213.56;5032635;28;20416;-65
2023/01/26 04:55:10;;;;;;;93.78;40.40;;;;;;;-1.35;100.00;160224.25;5030476;28;20017;-65
2023/01/26 04:57:35;;;;;;;97.45;44.60;;;;;;;-1.39;100.00;160213.56;5032270;28;20010;-65
2023/01/26 05:00:00;;;;;;;107.97;43.45;;;;;;;-1.42;100.00;160205.50;5031323;28;20546;-64
2023/01/26 05:02:26;;;;;;;107.97;41.25;;;;;;;-1.40;100.00;160210.88;5031767;28;20040;-65
2023/01/26 05:04:51;;;;;;;92.45;42.17;;;;;;;-1.39;100.00;160213.56;5032231;28;20049;-65
2023/01/26 05:07:16;;;;;;;90.82;40.42;;;;;;;-1.35;100.00;160222.94;5030669;28;20496;-66
2023/01/26 05:09:42;;;;;;;105.93;41.45;;;;;;;-1.32;100.00;160232.31;5031740;28;20480;-68
2023/01/26 05:14:51;;;;;;;85.80;36.55;;;;;;;-1.30;100.00;160237.63;5031863;28;20036;-66
2023/01/26 05:17:16;;;;;;;93.85;38.03;;;;;;;-1.29;100.00;160240.31;5029553;28;20038;-66
2023/01/26 05:19:41;;;;;;;92.53;38.45;;;;;;;-1.29;100.00;160240.31;5031765;28;20028;-66
2023/01/26 05:22:07;;;;;;;94.15;35.78;;;;;;;-1.29;100.00;160239.00;5030414;28;20504;-63
2023/01/26 05:24:32;;;;;;;93.63;44.13;;;;;;;-1.23;100.00;160253.72;5031350;28;20358;-63
2023/01/26 05:27:19;;;;;;;81.57;37.28;;;;;;;-1.16;100.00;160273.78;5029584;28;20052;-64
2023/01/26 05:29:45;;;;;;;80.10;36.15;;;;;;;-1.10;100.00;160288.53;5032160;28;20029;-63
2023/01/26 05:32:10;;;;;;;70.07;33.03;;;;;;;-1.14;100.00;160277.78;5029156;28;20191;-63
2023/01/26 05:34:35;;;;;;;66.30;32.00;;;;;;;-1.10;100.00;160288.53;5030812;28;20397;-63
2023/01/26 05:37:01;;;;;;;63.08;28.15;;;;;;;-1.08;100.00;160293.84;5031754;28;20021;-63
2023/01/26 05:39:26;;;;;;;76.47;31.35;;;;;;;-1.08;100.00;160292.53;5031253;28;20424;-63
2023/01/26 05:41:54;;;;;;;64.75;30.42;;;;;;;-1.09;100.00;160289.84;5030916;28;20025;-63
2023/01/26 05:44:20;;;;;;;50.03;25.88;;;;;;;-1.15;100.00;160276.47;5031562;28;20028;-63
2023/01/26 05:46:45;;;;;;;70.15;32.20;;;;;;;-1.13;100.00;160280.47;5030596;28;20025;-63
2023/01/26 05:49:10;;;;;;;69.82;31.45;;;;;;;-1.14;100.00;160277.78;5030487;28;20033;-63
2023/01/26 05:51:36;;;;;;;74.47;28.95;;;;;;;-1.19;100.00;160264.41;5029916;28;20706;-63
2023/01/26 05:54:01;;;;;;;75.25;27.95;;;;;;;-1.21;100.00;160259.06;5029104;28;20398;-63
2023/01/26 05:56:26;;;;;;;67.13;28.00;;;;;;;-1.15;100.00;160276.47;5029963;28;20029;-63
2023/01/26 05:58:52;;;;;;;64.07;28.27;;;;;;;-1.10;100.00;160287.16;5028789;28;20079;-63
2023/01/26 06:01:17;;;;;;;55.65;25.95;;;;;;;-1.02;100.00;160309.97;5029773;28;20040;-63
2023/01/26 06:03:42;;;;;;;59.35;29.35;;;;;;;-1.09;100.00;160291.22;5031235;28;20022;-63
2023/01/26 06:06:08;;;;;;;55.17;25.23;;;;;;;-1.09;100.00;160291.22;5030274;28;20523;-63
2023/01/26 06:08:33;;;;;;;69.93;27.00;;;;;;;-1.08;100.00;160293.84;5030684;28;20385;-64
2023/01/26 06:11:00;;;;;;;50.15;23.35;;;;;;;-0.98;100.00;160320.66;5031248;28;20021;-63
2023/01/26 06:13:25;;;;;;;56.88;26.60;;;;;;;-0.99;100.00;160316.66;5031062;28;20074;-63
2023/01/26 06:15:50;;;;;;;56.78;25.08;;;;;;;-1.03;100.00;160307.28;5030900;28;20476;-63
2023/01/26 06:18:16;;;;;;;52.90;26.92;;;;;;;-1.14;100.00;160279.16;5030849;28;20017;-63
2023/01/26 06:20:41;;;;;;;46.63;22.85;;;;;;;-1.02;100.00;160308.59;5031054;28;20586;-63
2023/01/26 06:23:10;;;;;;;43.53;22.73;;;;;;;-1.05;100.00;160301.91;5031016;28;20392;-64
2023/01/26 06:25:38;;;;;;;53.88;27.38;;;;;;;-1.04;100.00;160304.59;5030694;28;20432;-63
2023/01/26 06:28:03;;;;;;;55.00;24.90;;;;;;;-1.06;100.00;160297.91;5030829;28;20032;-63
2023/01/26 06:30:29;;;;;;;54.58;24.55;;;;;;;-1.01;100.00;160311.28;5030193;28;20029;-63
2023/01/26 06:32:55;;;;;;;58.60;26.70;;;;;;;-0.99;100.00;160317.97;5030477;28;20026;-63
2023/01/26 06:35:21;;;;;;;46.92;25.30;;;;;;;-1.04;100.00;160303.28;5030593;28;20026;-63
2023/01/26 06:37:49;;;;;;;51.08;26.02;;;;;;;-1.06;100.00;160299.22;5030850;28;20361;-64
2023/01/26 06:40:15;;;;;;;51.15;25.67;;;;;;;-1.04;100.00;160304.59;5028844;28;20488;-63
2023/01/26 06:42:49;;;;;;;49.97;25.00;;;;;;;-1.14;100.00;160279.16;5050429;28;20045;-63
2023/01/26 06:45:15;;;;;;;52.45;24.33;;;;;;;-1.09;100.00;160291.22;5040630;28;20353;-63
2023/01/26 06:47:48;;;;;;;48.38;21.23;;;;;;;-1.10;100.00;160288.53;5030240;28;20030;-62
2023/01/26 06:50:15;;;;;;;49.40;23.60;;;;;;;-1.13;100.00;160281.84;5030270;28;20040;-62
2023/01/26 06:52:44;;;;;;;51.33;23.52;;;;;;;-1.12;100.00;160284.47;5030985;28;20068;-62
2023/01/26 06:55:17;;;;;;;49.20;24.63;;;;;;;-1.09;100.00;160291.22;5034431;28;20086;-63
2023/01/26 06:57:43;;;;;;;50.55;22.23;;;;;;;-1.12;100.00;160283.16;5049910;28;20157;-62
2023/01/26 07:00:10;;;;;;;46.03;25.25;;;;;;;-1.09;100.00;160291.22;5043465;28;20029;-62
2023/01/26 07:02:35;;;;;;;47.22;21.42;;;;;;;-1.09;100.00;160289.84;5028159;28;20087;-62
2023/01/26 07:05:01;;;;;;;42.80;19.58;;;;;;;-1.05;100.00;160301.91;5029415;28;20050;-62
2023/01/26 07:07:26;;;;;;;43.80;19.88;;;;;;;-1.13;100.00;160280.47;5031605;28;20025;-62
2023/01/26 07:09:52;;;;;;;50.80;24.35;;;;;;;-1.02;100.00;160308.59;5031639;28;20025;-63
2023/01/26 07:12:17;;;;;;;46.15;21.00;;;;;;;-1.08;100.00;160292.53;5033782;28;20103;-63
2023/01/26 07:14:43;;;;;;;42.58;19.73;;;;;;;-1.06;100.00;160299.22;5034476;28;20033;-63
2023/01/26 07:17:08;;;;;;;47.70;21.45;;;;;;;-1.07;100.00;160296.53;5034314;28;20036;-62
2023/01/26 07:19:33;;;;;;;51.70;20.60;;;;;;;-1.22;100.00;160256.38;5033743;28;20534;-62
2023/01/26 07:22:00;;;;;;;51.33;22.27;;;;;;;-1.08;100.00;160293.84;5034540;28;20033;-62
2023/01/26 07:24:26;;;;;;;46.80;21.00;;;;;;;-1.07;100.00;160296.53;5033603;28;20025;-63
2023/01/26 07:26:51;;;;;;;40.47;22.13;;;;;;;-1.09;100.00;160289.84;5034107;28;20021;-62
2023/01/26 07:29:16;;;;;;;44.08;22.25;;;;;;;-1.11;100.00;160285.84;5033760;28;20079;-63
2023/01/26 07:31:43;;;;;;;42.08;22.10;;;;;;;-1.07;100.00;160296.53;5033670;28;20060;-62
2023/01/26 07:34:09;;;;;;;50.55;20.25;;;;;;;-1.07;100.00;160296.53;5034479;28;20018;-63
2023/01/26 07:36:34;;;;;;;40.78;22.33;;;;;;;-1.05;100.00;160300.59;5034030;28;20040;-63
2023/01/26 07:38:59;;;;;;;58.85;23.45;;;;;;;-1.00;100.00;160315.28;5033285;28;20032;-63
2023/01/26 07:41:25;;;;;;;72.00;24.63;;;;;;;-0.98;100.00;160320.66;5031329;28;20087;-63
2023/01/26 07:43:50;;;;;;;49.75;21.92;;;;;;;-0.98;100.00;160320.66;5030937;28;20022;-62
2023/01/26 07:46:16;;;;;;;52.40;24.90;;;;;;;-0.92;100.00;160334.03;5028520;28;20500;-62
2023/01/26 07:48:41;;;;;;;43.05;22.88;;;;;;;-0.91;100.00;160338.09;5032451;28;20591;-63
2023/01/26 07:51:08;;;;;;;49.78;20.58;;;;;;;-0.90;100.00;160339.41;5031397;28;20049;-62
2023/01/26 07:53:38;;;;;;;48.83;21.90;;;;;;;-0.87;100.00;160347.47;5031322;28;20040;-62
2023/01/26 07:56:12;;;;;;;43.92;21.58;;;;;;;-0.87;100.00;160347.47;5028872;28;20041;-62
2023/01/26 07:58:38;;;;;;;44.17;21.80;;;;;;;-0.83;100.00;160358.16;5028952;28;20033;-63
2023/01/26 08:01:11;;;;;;;45.70;25.30;;;;;;;-0.83;100.00;160358.16;5031979;28;20048;-62
2023/01/26 08:03:37;;;;;;;41.33;22.35;;;;;;;-0.83;100.00;160358.16;5033275;28;20045;-61
2023/01/26 08:06:03;;;;;;;40.83;20.45;;;;;;;-0.84;100.00;160355.47;5031952;28;20131;-62
2023/01/26 08:08:28;;;;;;;53.13;23.63;;;;;;;-0.86;100.00;160350.16;5033010;28;20021;-62
2023/01/26 08:10:59;;;;;;;47.47;24.52;;;;;;;-0.87;100.00;160347.47;5032053;28;20037;-62
2023/01/26 08:13:26;;;;;;;50.97;23.73;;;;;;;-0.88;100.00;160344.78;5032923;28;20147;-62
2023/01/26 08:15:52;;;;;;;57.30;24.52;;;;;;;-0.83;100.00;160358.16;5031861;28;20040;-61
2023/01/26 08:18:17;;;;;;;59.80;25.77;;;;;;;-0.79;100.00;160368.88;5031901;28;20373;-62
2023/01/26 08:20:51;;;;;;;55.88;23.98;;;;;;;-0.79;100.00;160368.88;5031563;28;20500;-62
2023/01/26 08:23:17;;;;;;;46.67;22.52;;;;;;;-0.73;100.00;160384.94;5032767;28;20049;-62
2023/01/26 08:25:42;;;;;;;57.70;26.45;;;;;;;-0.74;100.00;160382.28;5031232;28;20139;-62
2023/01/26 08:28:07;;;;;;;56.40;23.60;;;;;;;-0.73;100.00;160384.94;5032564;28;20085;-62
2023/01/26 08:30:33;;;;;;;61.20;26.55;;;;;;;-0.65;100.00;160406.38;5031669;28;20037;-62
2023/01/26 08:32:58;;;;;;;60.47;28.83;;;;;;;-0.63;100.00;160410.38;5032663;28;20060;-62
2023/01/26 08:35:24;;;;;;;53.42;24.80;;;;;;;-0.61;100.00;160414.41;5030181;28;20037;-62
2023/01/26 08:37:49;;;;;;;54.47;25.50;;;;;;;-0.60;100.00;160417.09;5032834;28;20022;-62
2023/01/26 08:40:15;;;;;;;64.28;24.92;;;;;;;-0.60;100.00;160418.44;5031137;28;20032;-61
2023/01/26 08:42:40;;;;;;;69.60;27.52;;;;;;;-0.62;100.00;160413.06;5029916;28;20021;-63
2023/01/26 08:45:06;;;;;;;49.22;24.92;;;;;;;-0.55;100.00;160430.47;5031058;28;20101;-62
2023/01/26 08:47:32;;;;;;;61.75;25.73;;;;;;;-0.56;100.00;160427.81;5032630;28;20052;-63
2023/01/26 08:49:57;;;;;;;62.92;28.45;;;;;;;-0.55;100.00;160430.47;5032363;28;20021;-62
2023/01/26 08:52:22;;;;;;;67.63;23.63;;;;;;;-0.52;100.00;160438.53;5031011;28;20041;-62
2023/01/26 08:54:48;;;;;;;57.35;27.10;;;;;;;-0.50;100.00;160443.91;5032296;28;20036;-62
2023/01/26 08:57:13;;;;;;;69.95;27.35;;;;;;;-0.48;100.00;160449.22;5030288;28;20044;-61
2023/01/26 08:59:38;;;;;;;88.05;25.55;;;;;;;-0.50;100.00;160443.91;5032489;28;20037;-62
2023/01/26 09:02:04;;;;;;;62.20;24.85;;;;;;;-0.50;100.00;160443.91;5030854;28;20045;-62
2023/01/26 09:04:29;;;;;;;58.45;25.48;;;;;;;-0.50;100.00;160443.91;5031597;28;20580;-62
2023/01/26 09:06:55;;;;;;;79.00;26.80;;;;;;;-0.53;100.00;160435.84;5030650;28;20095;-62
2023/01/26 09:09:20;;;;;;;84.70;29.10;;;;;;;-0.56;100.00;160427.81;5032065;28;20036;-62
2023/01/26 09:11:45;;;;;;;70.30;27.10;;;;;;;-0.53;100.00;160437.22;5030380;28;20417;-62
2023/01/26 09:14:11;;;;;;;115.63;27.60;;;;;;;-0.51;100.00;160441.22;5031408;28;20021;-62
2023/01/26 09:16:36;;;;;;;115.65;30.17;;;;;;;-0.47;100.00;160451.91;5030201;28;20103;-62
2023/01/26 09:19:02;;;;;;;83.63;29.55;;;;;;;-0.60;100.00;160417.09;5032076;28;20033;-62
2023/01/26 09:21:27;;;;;;;72.47;24.95;;;;;;;-0.42;100.00;160465.34;5030458;28;20408;-62
2023/01/26 09:23:55;;;;;;;84.93;27.60;;;;;;;-0.40;100.00;160470.66;5031922;28;20424;-62
2023/01/26 09:26:20;;;;;;;74.55;26.83;;;;;;;-0.52;100.00;160439.84;5029974;28;20112;-62
2023/01/26 09:28:50;;;;;;;80.13;29.45;;;;;;;-0.41;100.00;160467.97;5030822;28;20025;-62
2023/01/26 09:31:15;;;;;;;80.30;27.45;;;;;;;-0.38;100.00;160476.03;5029779;28;20124;-62
2023/01/26 09:33:40;;;;;;;113.28;30.33;;;;;;;-0.28;100.00;160500.16;5031611;28;20025;-62
2023/01/26 09:36:08;;;;;;;68.40;28.85;;;;;;;-0.24;100.00;160510.84;5030578;28;20024;-62
2023/01/26 09:38:34;;;;;;;98.97;30.87;;;;;;;-0.34;100.00;160486.78;5031466;28;20022;-62
2023/01/26 09:41:40;;;;;;;83.70;28.13;;;;;;;-0.45;100.00;160457.28;5029850;28;20043;-61
2023/01/26 09:44:24;;;;;;;74.72;27.90;;;;;;;-0.26;100.00;160505.53;5031347;28;20033;-62
2023/01/26 09:47:06;;;;;;;92.22;25.60;;;;;;;-0.23;100.00;160513.53;5030123;28;20049;-63
2023/01/26 09:49:44;;;;;;;85.47;26.00;;;;;;;-0.12;100.00;160541.69;5031361;28;20025;-63
2023/01/26 09:52:20;;;;;;;95.15;31.10;;;;;;;-0.11;100.00;160544.38;5030022;28;20128;-63
2023/01/26 09:54:50;;;;;;;72.63;27.15;;;;;;;-0.01;100.00;160572.50;5031350;28;20030;-63
2023/01/26 09:57:26;;;;;;;90.38;28.98;;;;;;;-0.05;100.00;160561.81;5029843;28;20037;-63
2023/01/26 10:00:10;;;;;;;71.40;27.67;;;;;;;-0.04;100.00;160563.13;5031388;28;20029;-62
2023/01/26 10:02:59;;;;;;;75.57;26.73;;;;;;;0.07;100.00;160591.25;5029267;28;20408;-62
2023/01/26 10:05:39;;;;;;;80.25;29.17;;;;;;;0.04;100.00;160584.56;5030664;28;20038;-62
2023/01/26 10:08:11;;;;;;;94.15;29.40;;;;;;;0.02;100.00;160577.88;5028481;28;20889;-62
2023/01/26 10:10:46;;;;;;;97.90;28.58;;;;;;;-0.04;100.00;160563.13;5030916;28;20034;-62
2023/01/26 10:13:13;;;;;;;79.78;28.85;;;;;;;-0.02;100.00;160569.81;5029196;28;20045;-62
2023/01/26 10:15:42;;;;;;;99.28;32.00;;;;;;;0.05;100.00;160585.88;5031394;28;20480;-62
2023/01/26 10:18:31;;;;;;;96.13;32.67;;;;;;;0.13;100.00;160608.69;5029257;28;20044;-62
2023/01/26 10:21:00;;;;;;;87.22;29.48;;;;;;;0.27;100.00;160643.53;5029813;28;20397;-60
2023/01/26 10:23:31;;;;;;;90.05;32.80;;;;;;;0.24;100.00;160636.84;5030954;28;20063;-62
2023/01/26 10:26:21;;;;;;;104.88;35.50;;;;;;;0.33;100.00;160658.28;5029427;28;20029;-61
2023/01/26 10:28:49;;;;;;;94.20;33.78;;;;;;;0.42;100.00;160683.75;5031324;28;20376;-62
2023/01/26 10:31:22;;;;;;;91.68;32.35;;;;;;;0.51;100.00;160706.53;5029367;28;20412;-62
2023/01/26 10:34:00;;;;;;;88.75;27.48;;;;;;;0.59;100.00;160727.97;5030788;28;20026;-62
2023/01/26 10:36:29;;;;;;;100.90;33.85;;;;;;;0.47;100.00;160697.16;5029392;28;20128;-62
2023/01/26 10:39:03;;;;;;;87.10;31.50;;;;;;;0.52;100.00;160709.22;5030872;28;20057;-62
2023/01/26 10:41:28;;;;;;;79.40;34.38;;;;;;;0.53;100.00;160711.91;5028091;28;20093;-62
2023/01/26 10:43:55;;;;;;;106.68;33.35;;;;;;;0.65;100.00;160741.38;5030898;28;20021;-62
2023/01/26 10:46:22;;;;;;;111.35;39.83;;;;;;;0.66;100.00;160745.44;5029275;28;20400;-62
2023/01/26 10:48:56;;;;;;;100.65;35.53;;;;;;;0.69;100.00;160752.13;5030385;28;20083;-63
2023/01/26 10:51:28;;;;;;;95.43;35.22;;;;;;;0.75;100.00;160768.22;5028994;28;20092;-62
2023/01/26 10:54:23;;;;;;;103.70;36.35;;;;;;;0.72;100.00;160760.13;5030733;28;20429;-62
2023/01/26 10:56:51;;;;;;;92.43;33.35;;;;;;;0.74;100.00;160765.53;5029243;28;20045;-63
2023/01/26 10:59:44;;;;;;;95.78;41.08;;;;;;;0.77;100.00;160773.59;5030371;28;20021;-62
2023/01/26 11:02:21;;;;;;;95.43;37.45;;;;;;;0.81;100.00;160784.28;5026487;28;20045;-62
2023/01/26 11:05:03;;;;;;;120.90;40.38;;;;;;;0.87;100.00;160800.38;5030682;28;20049;-63
2023/01/26 11:07:33;;;;;;;122.55;36.78;;;;;;;0.86;100.00;160797.69;5028922;28;20084;-62
2023/01/26 11:10:17;;;;;;;89.57;39.03;;;;;;;0.88;100.00;160803.06;5030266;28;20408;-62
2023/01/26 11:12:42;;;;;;;143.32;39.20;;;;;;;0.98;100.00;160828.53;5029362;28;20124;-62
2023/01/26 11:15:17;;;;;;;129.40;41.40;;;;;;;0.99;100.00;160829.91;5029102;28;20036;-62
2023/01/26 11:17:50;;;;;;;107.93;36.25;;;;;;;1.18;100.00;160880.84;5030396;28;20100;-63
2023/01/26 11:20:45;;;;;;;132.68;36.15;;;;;;;1.29;100.00;160909.00;5028836;28;20496;-62
2023/01/26 11:23:23;;;;;;;121.85;37.83;;;;;;;1.42;100.00;160942.56;5029979;28;20104;-63
2023/01/26 11:26:15;;;;;;;125.05;38.38;;;;;;;1.39;100.00;160934.50;5028742;28;20037;-62
2023/01/26 11:28:51;;;;;;;122.03;37.17;;;;;;;1.46;100.00;160953.25;5029921;28;20025;-62
2023/01/26 11:31:38;;;;;;;113.70;41.13;;;;;;;1.61;100.00;160990.81;5028081;28;20050;-63
2023/01/26 11:34:28;;;;;;;140.00;41.30;;;;;;;1.77;100.00;161033.78;5030316;28;20090;-62
2023/01/26 11:37:32;;;;;;;110.05;35.70;;;;;;;1.90;100.00;161068.66;5028923;28;20041;-62
2023/01/26 11:40:14;;;;;;;94.15;37.05;;;;;;;1.85;100.00;161055.25;5010240;28;20037;-63
2023/01/26 11:43:07;;;;;;;121.63;38.13;;;;;;;1.97;100.00;161086.13;5013431;28;20456;-63
2023/01/26 11:45:40;;;;;;;108.43;37.42;;;;;;;2.10;100.00;161119.69;5028640;28;20056;-62
2023/01/26 11:48:26;;;;;;;91.00;33.67;;;;;;;2.09;100.00;161115.63;5029856;28;20076;-63
2023/01/26 11:50:55;;;;;;;112.90;34.08;;;;;;;2.17;100.00;161138.47;5028772;28;20033;-62
2023/01/26 11:53:29;;;;;;;100.05;40.90;;;;;;;2.17;100.00;161138.47;5032022;28;20025;-62
2023/01/26 11:56:13;;;;;;;95.95;30.88;;;;;;;2.27;100.00;161162.66;5032451;28;20038;-63
2023/01/26 11:58:50;;;;;;;96.40;30.08;;;;;;;2.33;100.00;161178.75;5033645;28;20481;-63
2023/01/26 12:01:20;;;;;;;86.93;30.85;;;;;;;2.53;100.00;161232.44;5031587;28;20037;-62